createdAt,value
2023-01-29T00:02:15.973Z,101380.67
2023-01-29T00:04:44.787Z,101384.98
2023-01-29T00:07:14.119Z,101388.21
2023-01-29T00:09:43.923Z,101383.22
2023-01-29T00:12:12.662Z,101390.13
2023-01-29T00:14:41.166Z,101393.77
2023-01-29T00:17:10.447Z,101389.01
2023-01-29T00:19:39.168Z,101389.60
2023-01-29T00:22:09.220Z,101391.39
2023-01-29T00:24:37.937Z,101391.63
2023-01-29T00:27:06.626Z,101394.27
2023-01-29T00:29:35.415Z,101398.95
2023-01-29T00:32:04.339Z,101394.27
2023-01-29T00:34:33.213Z,101391.11
2023-01-29T00:37:09.161Z,101394.75
2023-01-29T00:39:47.893Z,101394.41
2023-01-29T00:42:35.831Z,101401.20
2023-01-29T00:45:06.824Z,101400.88
2023-01-29T00:47:35.528Z,101398.79
2023-01-29T00:50:13.680Z,101393.30
2023-01-29T00:52:43.247Z,101394.67
2023-01-29T00:55:12.179Z,101398.63
2023-01-29T00:57:40.896Z,101409.30
2023-01-29T01:00:15.030Z,101405.83
2023-01-29T01:03:03.052Z,101407.20
2023-01-29T01:05:32.403Z,101406.49
2023-01-29T01:08:01.193Z,101407.65
2023-01-29T01:10:33.167Z,101406.81
2023-01-29T01:13:05.399Z,101404.86
2023-01-29T01:15:40.555Z,101403.98
2023-01-29T01:18:09.524Z,101401.74
2023-01-29T01:20:38.239Z,101406.86
2023-01-29T01:23:07.336Z,101409.58
2023-01-29T01:25:36.001Z,101407.48
2023-01-29T01:28:05.179Z,101404.38
2023-01-29T01:30:34.021Z,101406.01
2023-01-29T01:33:02.759Z,101407.98
2023-01-29T01:35:32.624Z,101410.47
2023-01-29T01:38:01.271Z,101414.85
2023-01-29T01:40:30.072Z,101418.94
2023-01-29T01:43:01.454Z,101421.02
2023-01-29T01:45:35.449Z,101416.55
2023-01-29T01:48:30.660Z,101418.29
2023-01-29T01:51:04.849Z,101414.65
2023-01-29T01:53:39.841Z,101419.40
2023-01-29T01:56:14.972Z,101421.16
2023-01-29T01:58:55.795Z,101421.21
2023-01-29T02:01:30.452Z,101422.38
2023-01-29T02:04:28.423Z,101433.36
2023-01-29T02:07:19.882Z,101430.08
2023-01-29T02:10:01.143Z,101430.95
2023-01-29T02:12:31.454Z,101428.27
2023-01-29T02:15:00.987Z,101436.19
2023-01-29T02:17:32.456Z,101436.56
2023-01-29T02:20:07.051Z,101439.33
2023-01-29T02:22:59.365Z,101443.28
2023-01-29T02:25:55.757Z,101437.95
2023-01-29T02:28:49.376Z,101447.39
2023-01-29T02:31:46.144Z,101452.40
2023-01-29T02:34:59.655Z,101456.44
2023-01-29T02:38:37.141Z,101453.20
2023-01-29T02:41:40.951Z,101449.55
2023-01-29T02:44:41.936Z,101449.42
2023-01-29T02:47:24.858Z,101453.60
2023-01-29T02:50:11.685Z,101458.30
2023-01-29T02:53:02.313Z,101458.70
2023-01-29T02:55:59.715Z,101451.80
2023-01-29T02:58:44.337Z,101456.33
2023-01-29T03:01:33.357Z,101457.61
2023-01-29T03:04:10.924Z,101461.79
2023-01-29T03:07:10.848Z,101470.73
2023-01-29T03:09:52.287Z,101473.05
2023-01-29T03:12:34.384Z,101476.78
2023-01-29T03:15:25.317Z,101477.28
2023-01-29T03:18:51.121Z,101477.64
2023-01-29T03:21:50.449Z,101479.42
2023-01-29T03:25:14.398Z,101476.94
2023-01-29T03:28:12.601Z,101472.14
2023-01-29T03:31:19.433Z,101475.05
2023-01-29T03:34:34.927Z,101474.29
2023-01-29T03:37:14.161Z,101477.05
2023-01-29T03:39:42.971Z,101478.30
2023-01-29T03:42:38.779Z,101478.94
2023-01-29T03:45:28.990Z,101475.75
2023-01-29T03:48:46.508Z,101482.98
2023-01-29T03:51:38.832Z,101481.25
2023-01-29T03:54:26.585Z,101482.36
2023-01-29T03:57:02.467Z,101483.53
2023-01-29T03:59:44.849Z,101488.02
2023-01-29T04:03:13.122Z,101481.45
2023-01-29T04:05:53.467Z,101477.57
2023-01-29T04:08:32.530Z,101476.41
2023-01-29T04:11:11.157Z,101479.88
2023-01-29T04:13:44.039Z,101479.34
2023-01-29T04:16:29.720Z,101474.56
2023-01-29T04:19:21.921Z,101476.99
2023-01-29T04:21:59.029Z,101474.88
2023-01-29T04:24:28.159Z,101480.97
2023-01-29T04:27:14.979Z,101475.77
2023-01-29T04:30:05.746Z,101476.66
2023-01-29T04:33:11.472Z,101479.02
2023-01-29T04:35:55.149Z,101477.98
2023-01-29T04:39:20.281Z,101484.25
2023-01-29T04:42:25.728Z,101480.02
2023-01-29T04:45:45.387Z,101481.42
2023-01-29T04:48:28.258Z,101487.39
2023-01-29T04:51:31.099Z,101488.71
2023-01-29T04:54:28.124Z,101488.92
2023-01-29T04:57:42.075Z,101485.27
2023-01-29T05:00:28.892Z,101497.95
2023-01-29T05:02:59.385Z,101500.46
2023-01-29T05:05:29.492Z,101492.66
2023-01-29T05:07:59.971Z,101495.24
2023-01-29T05:10:29.549Z,101499.86
2023-01-29T05:13:06.111Z,101504.54
2023-01-29T05:16:04.670Z,101502.64
2023-01-29T05:18:34.128Z,101501.64
2023-01-29T05:21:08.037Z,101500.84
2023-01-29T05:23:37.467Z,101510.81
2023-01-29T05:26:06.438Z,101511.19
2023-01-29T05:28:34.997Z,101509.91
2023-01-29T05:31:03.825Z,101513.55
2023-01-29T05:33:32.713Z,101507.66
2023-01-29T05:36:01.263Z,101502.48
2023-01-29T05:38:29.915Z,101500.50
2023-01-29T05:40:59.762Z,101506.29
2023-01-29T05:43:28.549Z,101503.54
2023-01-29T05:46:00.281Z,101503.69
2023-01-29T05:48:29.999Z,101511.55
2023-01-29T05:51:05.359Z,101509.34
2023-01-29T05:53:34.303Z,101512.17
2023-01-29T05:56:05.027Z,101514.52
2023-01-29T05:58:34.582Z,101511.58
2023-01-29T06:01:19.710Z,101518.34
2023-01-29T06:03:48.670Z,101518.38
2023-01-29T06:06:18.050Z,101522.20
2023-01-29T06:08:46.879Z,101520.08
2023-01-29T06:11:16.628Z,101524.82
2023-01-29T06:13:46.109Z,101530.42
2023-01-29T06:16:15.468Z,101525.69
2023-01-29T06:18:44.218Z,101530.38
2023-01-29T06:21:14.297Z,101530.11
2023-01-29T06:23:43.191Z,101531.11
2023-01-29T06:26:15.439Z,101538.11
2023-01-29T06:28:46.174Z,101534.00
2023-01-29T06:31:35.321Z,101538.42
2023-01-29T06:34:05.015Z,101537.64
2023-01-29T06:36:33.868Z,101538.91
2023-01-29T06:39:02.801Z,101539.45
2023-01-29T06:41:31.612Z,101539.88
2023-01-29T06:44:02.431Z,101541.06
2023-01-29T06:46:31.787Z,101540.17
2023-01-29T06:49:01.236Z,101540.83
2023-01-29T06:51:30.072Z,101537.42
2023-01-29T06:53:59.063Z,101541.24
2023-01-29T06:56:28.200Z,101538.03
2023-01-29T06:58:57.681Z,101542.65
2023-01-29T07:01:35.697Z,101535.64
2023-01-29T07:04:05.708Z,101536.48
2023-01-29T07:06:34.495Z,101539.55
2023-01-29T07:09:05.360Z,101536.83
2023-01-29T07:11:38.148Z,101537.08
2023-01-29T07:14:08.053Z,101541.08
2023-01-29T07:16:36.767Z,101534.71
2023-01-29T07:19:05.635Z,101539.66
2023-01-29T07:21:34.292Z,101528.98
2023-01-29T07:24:03.363Z,101535.85
2023-01-29T07:26:32.146Z,101534.88
2023-01-29T07:29:01.121Z,101532.82
2023-01-29T07:31:30.002Z,101533.46
2023-01-29T07:33:58.791Z,101537.52
2023-01-29T07:36:28.527Z,101534.47
2023-01-29T07:38:57.249Z,101534.45
2023-01-29T07:41:25.917Z,101533.52
2023-01-29T07:43:55.247Z,101533.34
2023-01-29T07:46:24.089Z,101533.02
2023-01-29T07:48:52.757Z,101532.95
2023-01-29T07:51:21.693Z,101536.38
2023-01-29T07:53:50.281Z,101542.34
2023-01-29T07:56:18.967Z,101546.05
2023-01-29T07:58:47.525Z,101541.45
2023-01-29T08:01:17.008Z,101547.42
2023-01-29T08:03:45.816Z,101549.82
2023-01-29T08:06:14.742Z,101549.17
2023-01-29T08:08:43.439Z,101554.82
2023-01-29T08:11:12.234Z,101555.10
2023-01-29T08:13:41.007Z,101547.50
2023-01-29T08:16:09.805Z,101551.91
2023-01-29T08:18:38.918Z,101555.36
2023-01-29T08:21:07.518Z,101551.82
2023-01-29T08:23:36.169Z,101555.47
2023-01-29T08:26:05.090Z,101559.77
2023-01-29T08:28:33.775Z,101566.14
2023-01-29T08:31:02.660Z,101564.36
2023-01-29T08:33:39.116Z,101571.13
2023-01-29T08:36:09.997Z,101571.40
2023-01-29T08:38:42.251Z,101571.39
2023-01-29T08:41:11.155Z,101574.96
2023-01-29T08:43:41.144Z,101578.03
2023-01-29T08:46:11.251Z,101575.16
2023-01-29T08:48:40.664Z,101573.54
2023-01-29T08:51:10.633Z,101577.32
2023-01-29T08:53:39.094Z,101570.48
2023-01-29T08:56:08.493Z,101569.64
2023-01-29T08:58:37.292Z,101575.10
2023-01-29T09:01:11.869Z,101572.57
2023-01-29T09:03:47.183Z,101560.71
2023-01-29T09:06:15.817Z,101566.14
2023-01-29T09:08:44.568Z,101569.03
2023-01-29T09:11:13.546Z,101568.02
2023-01-29T09:13:42.187Z,101573.23
2023-01-29T09:16:11.448Z,101571.92
2023-01-29T09:18:40.425Z,101573.62
2023-01-29T09:21:09.019Z,101568.85
2023-01-29T09:23:38.245Z,101566.08
2023-01-29T09:26:08.877Z,101567.56
2023-01-29T09:28:37.851Z,101569.88
2023-01-29T09:31:06.658Z,101578.09
2023-01-29T09:33:35.913Z,101560.52
2023-01-29T09:36:05.412Z,101559.70
2023-01-29T09:38:34.270Z,101553.52
2023-01-29T09:41:53.776Z,101551.95
2023-01-29T09:45:06.005Z,101554.66
2023-01-29T09:47:36.847Z,101554.90
2023-01-29T09:50:19.093Z,101549.67
2023-01-29T09:53:11.086Z,101544.38
2023-01-29T09:56:05.099Z,101558.46
2023-01-29T09:58:37.566Z,101553.67
2023-01-29T10:01:19.223Z,101541.94
2023-01-29T10:04:13.284Z,101542.15
2023-01-29T10:07:00.389Z,101543.93
2023-01-29T10:10:14.095Z,101536.05
2023-01-29T10:13:07.593Z,101540.33
2023-01-29T10:16:19.099Z,101531.31
2023-01-29T10:19:41.396Z,101520.98
2023-01-29T10:23:02.113Z,101526.23
2023-01-29T10:25:36.398Z,101522.80
2023-01-29T10:28:23.629Z,101519.13
2023-01-29T10:31:07.104Z,101522.23
2023-01-29T10:33:49.421Z,101518.93
2023-01-29T10:36:46.743Z,101522.06
2023-01-29T10:39:24.841Z,101518.40
2023-01-29T10:42:24.321Z,101525.64
2023-01-29T10:46:11.962Z,101516.88
2023-01-29T10:49:41.036Z,101511.23
2023-01-29T10:52:46.999Z,101508.98
2023-01-29T10:55:41.310Z,101506.77
2023-01-29T10:58:55.227Z,101507.21
2023-01-29T11:01:24.301Z,101505.20
2023-01-29T11:04:14.889Z,101507.50
2023-01-29T11:06:51.879Z,101495.77
2023-01-29T11:10:15.155Z,101504.40
2023-01-29T11:12:45.049Z,101502.34
2023-01-29T11:15:28.137Z,101495.73
2023-01-29T11:18:15.931Z,101489.55
2023-01-29T11:20:46.505Z,101489.23
2023-01-29T11:23:35.586Z,101480.30
2023-01-29T11:26:06.090Z,101489.03
2023-01-29T11:28:44.779Z,101491.00
2023-01-29T11:31:38.499Z,101485.54
2023-01-29T11:34:30.769Z,101490.28
2023-01-29T11:37:16.330Z,101489.08
2023-01-29T11:39:49.034Z,101487.26
2023-01-29T11:42:23.814Z,101486.52
2023-01-29T11:44:52.664Z,101482.70
2023-01-29T11:47:28.111Z,101486.75
2023-01-29T11:50:05.126Z,101472.94
2023-01-29T11:52:42.322Z,101473.29
2023-01-29T11:55:58.953Z,101486.51
2023-01-29T11:59:10.916Z,101479.40
2023-01-29T12:02:06.700Z,101484.08
2023-01-29T12:05:38.222Z,101473.88
2023-01-29T12:08:44.614Z,101479.89
2023-01-29T12:11:47.700Z,101476.09
2023-01-29T12:15:05.249Z,101476.20
2023-01-29T12:18:24.325Z,101477.61
2023-01-29T12:21:48.491Z,101478.36
2023-01-29T12:25:23.946Z,101480.06
2023-01-29T12:28:29.952Z,101484.52
2023-01-29T12:31:27.332Z,101489.98
2023-01-29T12:34:32.301Z,101489.21
2023-01-29T12:37:58.248Z,101489.42
2023-01-29T12:41:01.689Z,101487.85
2023-01-29T12:44:34.776Z,101485.85
2023-01-29T12:47:08.671Z,101492.09
2023-01-29T12:49:47.204Z,101498.54
2023-01-29T12:52:27.275Z,101504.71
2023-01-29T12:55:06.648Z,101496.13
2023-01-29T12:57:50.095Z,101497.55
2023-01-29T13:00:25.768Z,101500.70
2023-01-29T13:03:22.124Z,101502.00
2023-01-29T13:06:00.591Z,101511.20
2023-01-29T13:08:55.505Z,101503.37
2023-01-29T13:12:13.239Z,101501.09
2023-01-29T13:15:07.129Z,101497.36
2023-01-29T13:17:50.931Z,101494.27
2023-01-29T13:20:32.548Z,101492.97
2023-01-29T13:23:38.873Z,101496.65
2023-01-29T13:26:26.777Z,101495.79
2023-01-29T13:28:56.070Z,101489.77
2023-01-29T13:31:41.773Z,101486.48
2023-01-29T13:34:26.045Z,101486.19
2023-01-29T13:36:59.579Z,101499.23
2023-01-29T13:39:48.084Z,101487.41
2023-01-29T13:42:50.513Z,101494.07
2023-01-29T13:45:42.866Z,101494.87
2023-01-29T13:48:29.310Z,101494.55
2023-01-29T13:51:03.100Z,101497.02
2023-01-29T13:53:42.316Z,101492.23
2023-01-29T13:56:33.345Z,101492.36
2023-01-29T13:59:06.628Z,101491.77
2023-01-29T14:01:48.465Z,101496.33
2023-01-29T14:04:32.970Z,101502.61
2023-01-29T14:07:49.200Z,101496.50
2023-01-29T14:10:28.969Z,101492.08
2023-01-29T14:13:22.174Z,101500.63
2023-01-29T14:16:01.432Z,101499.23
2023-01-29T14:18:35.853Z,101499.45
2023-01-29T14:21:08.150Z,101503.91
2023-01-29T14:23:47.126Z,101505.27
2023-01-29T14:26:35.102Z,101505.14
2023-01-29T14:29:14.477Z,101501.70
2023-01-29T14:32:07.247Z,101501.61
2023-01-29T14:34:51.393Z,101502.39
2023-01-29T14:37:46.316Z,101500.20
2023-01-29T14:40:30.058Z,101505.88
2023-01-29T14:43:10.082Z,101500.19
2023-01-29T14:45:45.187Z,101501.36
2023-01-29T14:48:40.652Z,101501.91
2023-01-29T14:51:15.690Z,101498.88
2023-01-29T14:53:56.665Z,101500.52
2023-01-29T14:57:07.816Z,101502.84
2023-01-29T14:59:57.106Z,101508.07
2023-01-29T15:02:41.971Z,101504.35
2023-01-29T15:05:25.671Z,101504.67
2023-01-29T15:08:21.042Z,101499.67
2023-01-29T15:11:15.065Z,101503.03
2023-01-29T15:14:24.311Z,101502.05
2023-01-29T15:17:10.717Z,101502.19
2023-01-29T15:19:51.231Z,101505.49
2023-01-29T15:22:33.067Z,101503.97
2023-01-29T15:25:14.527Z,101507.70
2023-01-29T15:27:46.433Z,101503.92
2023-01-29T15:30:32.898Z,101510.45
2023-01-29T15:33:03.986Z,101508.35
2023-01-29T15:35:43.148Z,101511.21
2023-01-29T15:38:22.268Z,101512.49
2023-01-29T15:41:17.444Z,101508.86
2023-01-29T15:44:17.398Z,101512.15
2023-01-29T15:47:01.558Z,101513.41
2023-01-29T15:49:33.183Z,101508.59
2023-01-29T15:52:20.606Z,101512.34
2023-01-29T15:54:50.284Z,101519.91
2023-01-29T15:57:26.776Z,101515.65
2023-01-29T16:00:09.173Z,101517.21
2023-01-29T16:02:47.150Z,101517.16
2023-01-29T16:05:27.802Z,101518.30
2023-01-29T16:08:01.827Z,101524.34
2023-01-29T16:10:37.443Z,101527.14
2023-01-29T16:13:17.274Z,101525.64
2023-01-29T16:16:25.733Z,101524.81
2023-01-29T16:19:01.239Z,101520.75
2023-01-29T16:25:22.599Z,101520.10
2023-01-29T16:27:52.710Z,101518.05
2023-01-29T16:30:28.666Z,101514.56
2023-01-29T16:33:06.262Z,101515.11
2023-01-29T16:35:37.538Z,101512.66
2023-01-29T16:38:37.736Z,101509.38
2023-01-29T16:41:38.819Z,101520.27
2023-01-29T16:44:17.497Z,101519.42
2023-01-29T16:46:49.571Z,101518.90
2023-01-29T16:49:31.469Z,101514.91
2023-01-29T16:52:39.469Z,101516.98
2023-01-29T16:55:23.238Z,101518.56
2023-01-29T16:57:57.056Z,101515.04
2023-01-29T17:00:32.746Z,101511.58
2023-01-29T17:03:07.733Z,101513.41
2023-01-29T17:05:39.357Z,101510.28
2023-01-29T17:08:19.020Z,101509.27
2023-01-29T17:10:48.980Z,101510.66
2023-01-29T17:13:35.533Z,101515.27
2023-01-29T17:16:24.421Z,101516.23
2023-01-29T17:18:55.191Z,101514.19
2023-01-29T17:21:24.915Z,101513.87
2023-01-29T17:23:55.530Z,101514.98
2023-01-29T17:26:25.378Z,101514.72
2023-01-29T17:28:55.208Z,101513.13
2023-01-29T17:31:24.724Z,101512.48
2023-01-29T17:33:57.207Z,101513.63
2023-01-29T17:37:29.976Z,101513.06
2023-01-29T17:40:05.407Z,101513.06
2023-01-29T17:42:40.449Z,101510.88
2023-01-29T17:45:11.785Z,101507.50
2023-01-29T17:47:41.118Z,101510.14
2023-01-29T17:50:30.860Z,101515.27
2023-01-29T17:53:05.258Z,101516.98
2023-01-29T17:55:36.119Z,101515.33
2023-01-29T17:58:05.555Z,101515.30
2023-01-29T18:00:35.623Z,101520.52
2023-01-29T18:03:04.878Z,101519.49
2023-01-29T18:05:33.876Z,101520.51
2023-01-29T18:08:06.011Z,101518.92
2023-01-29T18:10:35.255Z,101517.30
2023-01-29T18:13:04.979Z,101520.86
2023-01-29T18:15:35.051Z,101520.00
2023-01-29T18:18:07.055Z,101528.91
2023-01-29T18:20:40.777Z,101529.27
2023-01-29T18:23:12.484Z,101531.96
2023-01-29T18:25:43.660Z,101534.83
2023-01-29T18:28:18.046Z,101536.55
2023-01-29T18:30:48.798Z,101537.14
2023-01-29T18:33:27.101Z,101537.16
2023-01-29T18:36:07.820Z,101535.70
2023-01-29T18:38:37.241Z,101535.47
2023-01-29T18:41:11.750Z,101538.61
2023-01-29T18:43:45.876Z,101535.73
2023-01-29T18:46:23.222Z,101537.41
2023-01-29T18:48:57.520Z,101533.73
2023-01-29T18:51:29.857Z,101537.43
2023-01-29T18:57:13.476Z,101539.36
2023-01-29T18:59:49.337Z,101537.42
2023-01-29T19:02:25.347Z,101543.84
2023-01-29T19:04:54.814Z,101544.09
2023-01-29T19:07:24.387Z,101540.41
2023-01-29T19:09:55.232Z,101543.91
2023-01-29T19:12:26.615Z,101548.16
2023-01-29T19:14:58.920Z,101549.08
2023-01-29T19:17:31.275Z,101542.33
2023-01-29T19:20:10.348Z,101544.24
2023-01-29T19:22:41.264Z,101545.29
2023-01-29T19:25:11.569Z,101552.09
2023-01-29T19:27:41.893Z,101554.04
2023-01-29T19:30:13.160Z,101553.98
2023-01-29T19:32:54.781Z,101554.71
2023-01-29T19:35:31.279Z,101550.89
2023-01-29T19:38:07.475Z,101556.71
2023-01-29T19:40:41.707Z,101553.08
2023-01-29T19:43:19.336Z,101555.58
2023-01-29T19:45:51.844Z,101554.68
2023-01-29T19:48:25.414Z,101553.13
2023-01-29T19:51:04.061Z,101558.04
2023-01-29T19:53:44.632Z,101555.23
2023-01-29T19:56:26.227Z,101553.64
2023-01-29T19:59:18.058Z,101548.79
2023-01-29T20:01:53.377Z,101548.66
2023-01-29T20:04:23.587Z,101551.36
2023-01-29T20:06:53.399Z,101548.63
2023-01-29T20:09:23.469Z,101544.52
2023-01-29T20:11:52.275Z,101545.92
2023-01-29T20:14:24.104Z,101542.04
2023-01-29T20:16:52.778Z,101541.14
2023-01-29T20:19:21.427Z,101541.73
2023-01-29T20:21:50.056Z,101539.09
2023-01-29T20:24:18.742Z,101536.02
2023-01-29T20:26:47.460Z,101534.17
2023-01-29T20:29:16.037Z,101537.70
2023-01-29T20:31:44.688Z,101535.74
2023-01-29T20:34:13.356Z,101535.49
2023-01-29T20:36:42.029Z,101534.48
2023-01-29T20:39:10.745Z,101530.80
2023-01-29T20:41:41.755Z,101528.70
2023-01-29T20:44:10.652Z,101530.91
2023-01-29T20:46:39.409Z,101528.33
2023-01-29T20:49:09.070Z,101530.75
2023-01-29T20:51:37.940Z,101524.67
2023-01-29T20:54:06.612Z,101525.43
2023-01-29T20:56:38.460Z,101523.02
2023-01-29T20:59:11.471Z,101525.65
2023-01-29T21:01:40.117Z,101527.42
2023-01-29T21:04:08.966Z,101523.55
2023-01-29T21:06:38.169Z,101519.13
2023-01-29T21:09:07.657Z,101518.91
2023-01-29T21:11:36.438Z,101514.52
2023-01-29T21:14:05.239Z,101519.33
2023-01-29T21:16:33.996Z,101518.77
2023-01-29T21:19:03.556Z,101517.83
2023-01-29T21:21:32.383Z,101515.15
2023-01-29T21:24:01.193Z,101516.09
2023-01-29T21:26:29.799Z,101517.20
2023-01-29T21:28:59.649Z,101521.09
2023-01-29T21:31:28.522Z,101516.89
2023-01-29T21:33:57.383Z,101518.40
2023-01-29T21:36:26.073Z,101515.72
2023-01-29T21:38:54.774Z,101515.14
2023-01-29T21:41:42.731Z,101515.62
2023-01-29T21:44:12.707Z,101504.98
2023-01-29T21:46:41.531Z,101501.34
2023-01-29T21:49:10.285Z,101500.95
2023-01-29T21:53:47.472Z,101495.94
2023-01-29T21:56:19.792Z,101495.45
2023-01-29T21:58:50.239Z,101492.52
2023-01-29T22:01:37.803Z,101488.33
2023-01-29T22:04:09.892Z,101488.27
2023-01-29T22:06:38.475Z,101485.40
2023-01-29T22:09:07.091Z,101480.06
2023-01-29T22:11:35.956Z,101477.00
2023-01-29T22:14:04.638Z,101472.76
2023-01-29T22:16:33.677Z,101477.21
2023-01-29T22:19:02.551Z,101471.28
2023-01-29T22:21:31.130Z,101467.59
2023-01-29T22:23:59.723Z,101468.67
2023-01-29T22:26:29.766Z,101464.38
2023-01-29T22:28:58.525Z,101462.66
2023-01-29T22:31:27.308Z,101460.55
2023-01-29T22:33:55.973Z,101458.89
2023-01-29T22:36:24.746Z,101456.98
2023-01-29T22:38:53.497Z,101457.33
2023-01-29T22:41:22.151Z,101454.10
2023-01-29T22:43:50.727Z,101453.83
2023-01-29T22:46:19.369Z,101450.11
2023-01-29T22:48:47.972Z,101449.11
2023-01-29T22:51:16.713Z,101443.40
2023-01-29T22:53:57.133Z,101446.19
2023-01-29T22:56:28.360Z,101446.15
2023-01-29T22:58:59.950Z,101446.77
2023-01-29T23:01:31.592Z,101449.63
2023-01-29T23:04:00.445Z,101441.71
2023-01-29T23:06:29.044Z,101442.23
2023-01-29T23:08:57.793Z,101444.25
2023-01-29T23:11:26.498Z,101440.86
2023-01-29T23:13:55.512Z,101432.62
2023-01-29T23:16:28.054Z,101431.54
2023-01-29T23:18:57.417Z,101420.50
2023-01-29T23:21:27.384Z,101420.21
2023-01-29T23:23:58.463Z,101416.28
2023-01-29T23:26:48.045Z,101413.73
2023-01-29T23:29:16.736Z,101407.92
2023-01-29T23:31:45.490Z,101405.82
2023-01-29T23:34:14.495Z,101409.21
2023-01-29T23:36:43.625Z,101404.40
2023-01-29T23:39:12.275Z,101400.53
2023-01-29T23:41:40.937Z,101398.36
2023-01-29T23:44:09.856Z,101397.25
2023-01-29T23:46:38.751Z,101399.70
2023-01-29T23:49:07.576Z,101396.44
2023-01-29T23:51:36.233Z,101397.83
2023-01-29T23:54:05.608Z,101398.81
2023-01-29T23:56:34.503Z,101394.75
2023-01-29T23:59:03.170Z,101393.84
